Time;durP1;ratioP1;P1;durP2;ratioP2;P2;SDS_P1;SDS_P2;PMS_P1;PMS_P2;Temp;Humidity;BMP_temperature;BMP_pressure;BME280_temperature;BME280_humidity;BME280_pressure;Samples;Min_cycle;Max_cycle;Signal;HPM_P1;HPM_P2
2023/08/08 05:40:41;;;;;;;3.75;0.95;;;;;;;;;;6113627;23;20032;-81
2023/08/08 05:43:18;;;;;;;5.05;0.50;;;;;;;;;;6146738;23;20518;-81
2023/08/08 05:45:50;;;;;;;3.35;0.80;;;;;;;;;;6089813;23;20022;-82
2023/08/08 05:50:52;;;;;;;4.13;0.60;;;;;;;;;;6178931;23;20376;-80
2023/08/08 05:53:21;;;;;;;4.38;0.98;;;;;;;;;;6154804;23;20024;-82
2023/08/08 05:55:47;;;;;;;1.63;0.70;;;;;;;;;;6181409;23;20001;-82
2023/08/08 05:58:13;;;;;;;2.55;0.57;;;;;;;;;;6154853;23;20013;-82
2023/08/08 06:11:53;;;;;;;4.68;0.88;;;;;;;;;;6159196;23;20036;-89
2023/08/08 06:14:34;;;;;;;3.30;0.70;;;;;;;;;;6130499;23;20032;-87
2023/08/08 06:32:53;;;;;;;2.00;0.60;;;;;;;;;;6179439;23;20036;-84
2023/08/08 06:35:19;;;;;;;4.32;0.65;;;;;;;;;;6126781;23;20060;-84
2023/08/08 06:37:51;;;;;;;2.20;0.70;;;;;;;;;;6126837;23;20014;-84
2023/08/08 06:40:17;;;;;;;2.70;0.80;;;;;;;;;;6126673;23;20025;-82
2023/08/08 06:43:15;;;;;;;1.92;0.70;;;;;;;;;;6136303;23;20009;-83
2023/08/08 06:45:41;;;;;;;5.05;0.75;;;;;;;;;;6182312;23;20020;-85
2023/08/08 06:48:29;;;;;;;;;;;;;;;;;;;;;
2023/08/08 06:57:41;;;;;;;3.30;0.60;;;;;;;;;;6062618;23;20089;-85
2023/08/08 07:00:16;;;;;;;1.75;0.55;;;;;;;;;;6062126;23;20039;-85
2023/08/08 07:09:10;;;;;;;4.13;0.65;;;;;;;;;;6128875;23;20034;-83
2023/08/08 07:11:43;;;;;;;3.42;1.20;;;;;;;;;;6125377;23;20515;-83
2023/08/08 07:14:26;;;;;;;2.60;0.70;;;;;;;;;;6125156;23;20014;-84
2023/08/08 07:17:04;;;;;;;1.10;0.45;;;;;;;;;;6125019;23;20130;-84
2023/08/08 07:20:13;;;;;;;2.60;0.70;;;;;;;;;;6124603;23;20010;-83
2023/08/08 07:22:39;;;;;;;1.80;0.40;;;;;;;;;;6125117;23;20017;-82
2023/08/08 07:25:14;;;;;;;3.08;0.65;;;;;;;;;;6125365;23;20021;-84
2023/08/08 07:27:43;;;;;;;2.08;0.50;;;;;;;;;;6153623;23;20009;-83
2023/08/08 07:30:12;;;;;;;3.80;0.60;;;;;;;;;;6127227;23;20049;-83
2023/08/08 07:32:40;;;;;;;4.70;0.90;;;;;;;;;;6153421;23;20016;-83
2023/08/08 07:35:11;;;;;;;2.13;0.70;;;;;;;;;;6126983;23;20083;-83
2023/08/08 07:37:39;;;;;;;2.45;0.63;;;;;;;;;;6126892;23;20016;-83
2023/08/08 07:40:18;;;;;;;1.58;0.60;;;;;;;;;;6154025;23;20009;-84
2023/08/08 07:42:53;;;;;;;4.28;0.52;;;;;;;;;;6126352;23;20085;-84
2023/08/08 07:45:37;;;;;;;2.17;0.60;;;;;;;;;;6127329;23;20119;-84
2023/08/08 07:48:08;;;;;;;1.45;0.50;;;;;;;;;;6126931;23;20012;-84
2023/08/08 07:53:50;;;;;;;3.88;0.90;;;;;;;;;;6153014;23;20036;-84
2023/08/08 07:56:18;;;;;;;1.65;0.60;;;;;;;;;;6151445;23;20002;-84
2023/08/08 07:58:47;;;;;;;3.60;0.85;;;;;;;;;;6126918;23;20072;-84
2023/08/08 08:01:27;;;;;;;;;;;;;;;;;;;;;
2023/08/08 08:07:04;;;;;;;4.22;0.63;;;;;;;;;;6182884;23;20011;-83
2023/08/08 08:09:42;;;;;;;2.53;0.80;;;;;;;;;;6183620;23;20437;-83
2023/08/08 08:12:10;;;;;;;1.90;0.50;;;;;;;;;;6155748;23;20071;-84
2023/08/08 08:14:38;;;;;;;3.70;0.70;;;;;;;;;;6156237;23;20013;-83
2023/08/08 08:17:24;;;;;;;3.70;0.50;;;;;;;;;;6182722;23;20013;-84
2023/08/08 08:19:53;;;;;;;2.45;0.68;;;;;;;;;;6182921;23;20464;-83
2023/08/08 08:22:22;;;;;;;2.47;0.50;;;;;;;;;;6155887;23;20017;-84
2023/08/08 08:24:58;;;;;;;7.97;1.20;;;;;;;;;;6155658;23;20056;-83
2023/08/08 08:27:32;;;;;;;2.00;0.52;;;;;;;;;;6156481;23;20013;-83
2023/08/08 08:29:58;;;;;;;2.28;0.60;;;;;;;;;;6156673;23;20017;-83
2023/08/08 08:32:27;;;;;;;2.72;0.68;;;;;;;;;;6155671;23;20017;-83
2023/08/08 08:34:53;;;;;;;2.63;0.77;;;;;;;;;;6156382;23;20080;-83
2023/08/08 08:37:28;;;;;;;2.08;0.65;;;;;;;;;;6182465;23;20715;-83
2023/08/08 08:40:02;;;;;;;3.40;0.90;;;;;;;;;;6183591;23;20009;-83
2023/08/08 08:42:33;;;;;;;1.17;0.50;;;;;;;;;;6182801;23;20047;-83
2023/08/08 08:44:59;;;;;;;8.32;1.50;;;;;;;;;;6183235;23;20512;-83
2023/08/08 08:47:26;;;;;;;4.43;0.60;;;;;;;;;;6156068;23;20009;-83
2023/08/08 08:49:56;;;;;;;2.38;0.50;;;;;;;;;;6156382;23;20104;-83
2023/08/08 08:52:32;;;;;;;2.20;0.60;;;;;;;;;;6155343;23;20011;-83
2023/08/08 08:55:03;;;;;;;1.90;0.55;;;;;;;;;;6182678;23;20013;-82
2023/08/08 08:57:29;;;;;;;2.50;0.70;;;;;;;;;;6155829;23;20780;-83
2023/08/08 09:00:01;;;;;;;3.60;0.70;;;;;;;;;;6156067;23;20103;-83
2023/08/08 09:02:30;;;;;;;2.03;0.60;;;;;;;;;;6154856;23;20602;-83
2023/08/08 09:04:59;;;;;;;3.28;1.02;;;;;;;;;;6148945;23;20033;-84
2023/08/08 09:07:33;;;;;;;2.33;0.60;;;;;;;;;;6149492;23;20517;-84
2023/08/08 09:10:19;;;;;;;3.92;0.82;;;;;;;;;;6153055;23;20080;-83
2023/08/08 09:12:47;;;;;;;3.45;0.80;;;;;;;;;;6153027;23;20445;-84
2023/08/08 09:15:16;;;;;;;1.73;0.60;;;;;;;;;;6153013;23;20012;-83
2023/08/08 09:17:45;;;;;;;5.15;0.70;;;;;;;;;;6153936;23;20010;-83
2023/08/08 09:20:30;;;;;;;;;;;;;;;;;;;;;
2023/08/08 09:23:23;;;;;;;2.58;0.73;;;;;;;;;;6151521;23;20017;-83
2023/08/08 09:25:49;;;;;;;;;;;;;;;;;;6152340;23;20009;-82
2023/08/08 09:28:17;;;;;;;1.90;0.60;;;;;;;;;;6151996;23;19916;-81
2023/08/08 09:30:47;;;;;;;5.53;0.60;;;;;;;;;;6151830;23;20009;-81
2023/08/08 09:33:13;;;;;;;2.88;0.80;;;;;;;;;;6151512;23;20465;-82
2023/08/08 09:35:59;;;;;;;2.53;0.70;;;;;;;;;;6150434;23;20016;-82
2023/08/08 09:38:26;;;;;;;3.05;0.70;;;;;;;;;;6151109;23;20013;-83
2023/08/08 09:40:52;;;;;;;3.90;0.65;;;;;;;;;;6150704;23;20647;-82
2023/08/08 09:43:42;;;;;;;2.35;0.60;;;;;;;;;;6150150;23;20014;-82
2023/08/08 09:46:41;;;;;;;2.65;0.70;;;;;;;;;;6152267;23;20009;-82
2023/08/08 09:52:28;;;;;;;2.28;0.65;;;;;;;;;;6128111;23;20025;-83
2023/08/08 09:54:55;;;;;;;3.22;0.85;;;;;;;;;;6124289;23;20125;-82
2023/08/08 09:57:22;;;;;;;6.22;0.80;;;;;;;;;;6151679;23;20097;-82
2023/08/08 10:00:28;;;;;;;2.88;0.70;;;;;;;;;;6152469;23;20677;-84
2023/08/08 10:02:58;;;;;;;4.25;0.82;;;;;;;;;;6149267;23;20025;-84
2023/08/08 10:05:25;;;;;;;5.40;0.80;;;;;;;;;;6173078;23;20029;-82
2023/08/08 10:07:51;;;;;;;9.27;0.60;;;;;;;;;;6181423;23;20024;-81
2023/08/08 10:10:18;;;;;;;2.78;0.60;;;;;;;;;;6154253;23;20017;-81
2023/08/08 10:12:46;;;;;;;2.17;0.70;;;;;;;;;;6181800;23;20647;-82
2023/08/08 10:15:20;;;;;;;3.92;0.65;;;;;;;;;;6181357;23;20093;-82
2023/08/08 10:17:47;;;;;;;1.85;0.60;;;;;;;;;;6154768;23;20013;-82
2023/08/08 10:20:17;;;;;;;3.35;0.57;;;;;;;;;;6181931;23;20012;-82
2023/08/08 10:22:44;;;;;;;2.72;0.70;;;;;;;;;;6155016;23;20440;-81
2023/08/08 10:25:19;;;;;;;4.50;0.60;;;;;;;;;;6155252;23;20051;-82
2023/08/08 10:27:45;;;;;;;4.60;0.60;;;;;;;;;;6154246;23;20112;-81
2023/08/08 10:30:15;;;;;;;3.22;0.70;;;;;;;;;;6154929;23;20013;-81
2023/08/08 10:32:42;;;;;;;2.78;1.05;;;;;;;;;;6180574;23;20013;-81
2023/08/08 10:35:09;;;;;;;2.55;0.50;;;;;;;;;;6181208;23;20424;-82
2023/08/08 10:37:35;;;;;;;2.55;0.63;;;;;;;;;;6155008;23;20052;-81
2023/08/08 10:40:05;;;;;;;3.05;0.90;;;;;;;;;;6155663;23;20012;-81
2023/08/08 10:42:32;;;;;;;4.63;0.70;;;;;;;;;;6155012;23;20040;-80
2023/08/08 10:44:59;;;;;;;2.25;0.50;;;;;;;;;;6155162;23;20032;-79
2023/08/08 10:47:25;;;;;;;1.60;0.60;;;;;;;;;;6153675;23;20045;-81
2023/08/08 10:50:06;;;;;;;3.78;0.43;;;;;;;;;;6181700;23;20055;-81
2023/08/08 10:52:35;;;;;;;1.90;0.50;;;;;;;;;;6155109;23;20079;-82
2023/08/08 10:55:01;;;;;;;1.42;0.50;;;;;;;;;;6154990;23;20035;-81
2023/08/08 10:57:27;;;;;;;2.58;0.60;;;;;;;;;;6155675;23;20067;-83
2023/08/08 10:59:54;;;;;;;3.63;0.70;;;;;;;;;;6155334;23;20009;-81
2023/08/08 11:17:40;;;;;;;1.92;0.60;;;;;;;;;;6147578;23;20088;-82
2023/08/08 11:23:37;;;;;;;4.20;0.45;;;;;;;;;;6055552;23;20380;-82
2023/08/08 11:47:37;;;;;;;;;;;;;;;;;;;;;
2023/08/08 11:50:29;;;;;;;;;;;;;;;;;;;;;
2023/08/08 11:53:15;;;;;;;1.10;0.50;;;;;;;;;;6152141;23;20044;-81
2023/08/08 11:56:00;;;;;;;2.20;0.60;;;;;;;;;;6126365;23;20022;-82
2023/08/08 11:58:57;;;;;;;1.45;0.47;;;;;;;;;;6125889;23;20426;-81
2023/08/08 12:04:56;;;;;;;2.08;0.80;;;;;;;;;;6152333;23;20024;-82
2023/08/08 12:07:45;;;;;;;1.83;0.50;;;;;;;;;;6126067;23;20029;-82
2023/08/08 12:10:49;;;;;;;1.15;0.40;;;;;;;;;;6126409;23;20049;-81
2023/08/08 12:13:20;;;;;;;2.75;0.60;;;;;;;;;;6125229;23;20057;-82
2023/08/08 12:16:11;;;;;;;1.13;0.40;;;;;;;;;;6126865;23;20052;-81
2023/08/08 12:24:59;;;;;;;1.38;0.50;;;;;;;;;;6138960;23;20009;-81
2023/08/08 12:27:47;;;;;;;1.75;0.50;;;;;;;;;;6125860;23;20676;-82
2023/08/08 12:30:45;;;;;;;1.52;0.40;;;;;;;;;;6151984;23;20384;-81
2023/08/08 12:39:22;;;;;;;3.35;0.90;;;;;;;;;;6135810;23;20017;-82
2023/08/08 12:42:17;;;;;;;2.60;0.50;;;;;;;;;;6152887;23;20020;-81
2023/08/08 12:44:52;;;;;;;3.60;0.57;;;;;;;;;;6084133;23;20017;-81
2023/08/08 12:47:21;;;;;;;2.10;0.50;;;;;;;;;;6125733;23;20022;-81
2023/08/08 12:50:03;;;;;;;1.52;0.57;;;;;;;;;;6126231;23;20065;-81
2023/08/08 12:52:56;;;;;;;1.70;0.50;;;;;;;;;;6149397;23;20009;-81
2023/08/08 12:55:58;;;;;;;2.65;0.55;;;;;;;;;;6124878;23;20034;-82
2023/08/08 13:02:05;;;;;;;4.35;0.47;;;;;;;;;;6152528;23;20225;-81
2023/08/08 13:04:44;;;;;;;1.35;0.52;;;;;;;;;;6113774;23;20232;-81
2023/08/08 13:07:29;;;;;;;;;;;;;;;;;;;;;
2023/08/08 13:10:26;;;;;;;3.42;0.57;;;;;;;;;;6149607;23;20487;-82
2023/08/08 13:16:42;;;;;;;1.77;0.88;;;;;;;;;;6033138;23;20026;-87
2023/08/08 13:42:52;;;;;;;;;;;;;;;;;;;;;
2023/08/08 13:59:49;;;;;;;4.82;0.60;;;;;;;;;;6181660;23;20096;-86
2023/08/08 14:02:17;;;;;;;1.58;0.50;;;;;;;;;;6159529;23;20005;-83
2023/08/08 14:04:44;;;;;;;1.48;0.60;;;;;;;;;;6186110;23;20020;-84
2023/08/08 14:07:21;;;;;;;5.53;0.57;;;;;;;;;;6159672;23;20027;-85
2023/08/08 14:09:49;;;;;;;1.73;0.52;;;;;;;;;;6160105;23;20329;-83
2023/08/08 14:12:15;;;;;;;2.67;0.60;;;;;;;;;;6157150;23;20001;-83
2023/08/08 14:14:41;;;;;;;4.60;0.60;;;;;;;;;;6157593;23;20012;-81
2023/08/08 14:17:07;;;;;;;6.95;0.82;;;;;;;;;;6183755;23;20008;-81
2023/08/08 14:19:33;;;;;;;2.95;0.68;;;;;;;;;;6182430;23;20706;-81
2023/08/08 14:21:59;;;;;;;2.58;0.70;;;;;;;;;;6181686;23;20013;-82
2023/08/08 14:24:25;;;;;;;4.28;1.00;;;;;;;;;;6181565;23;20005;-81
2023/08/08 14:26:51;;;;;;;1.33;0.50;;;;;;;;;;6181740;23;20013;-81
2023/08/08 14:29:17;;;;;;;3.30;0.68;;;;;;;;;;6181766;23;20005;-81
2023/08/08 14:31:43;;;;;;;2.53;0.80;;;;;;;;;;6155572;23;20028;-83
2023/08/08 14:34:09;;;;;;;3.60;0.55;;;;;;;;;;6155106;23;20012;-82
2023/08/08 14:36:35;;;;;;;2.97;0.70;;;;;;;;;;6181695;23;20009;-83
2023/08/08 14:39:01;;;;;;;2.95;0.45;;;;;;;;;;6181055;23;20061;-82
2023/08/08 14:41:27;;;;;;;2.05;0.70;;;;;;;;;;6155864;23;20503;-82
2023/08/08 14:43:54;;;;;;;2.72;0.57;;;;;;;;;;6155730;23;20740;-82
2023/08/08 14:46:20;;;;;;;2.03;0.73;;;;;;;;;;6181319;23;20108;-83
2023/08/08 14:48:46;;;;;;;1.73;0.60;;;;;;;;;;6154207;23;20013;-82
2023/08/08 14:51:16;;;;;;;1.85;0.60;;;;;;;;;;6154805;23;20013;-81
2023/08/08 14:53:42;;;;;;;1.73;0.60;;;;;;;;;;6154823;23;20009;-81
2023/08/08 14:56:08;;;;;;;1.70;0.70;;;;;;;;;;6181214;23;20515;-81
2023/08/08 14:58:34;;;;;;;2.60;0.57;;;;;;;;;;6181244;23;20508;-82
2023/08/08 15:01:01;;;;;;;2.55;0.70;;;;;;;;;;6154613;23;20049;-84
2023/08/08 15:03:27;;;;;;;3.45;0.65;;;;;;;;;;6154449;23;20084;-82
2023/08/08 15:05:53;;;;;;;1.85;0.52;;;;;;;;;;6154393;23;20020;-83
2023/08/08 15:08:19;;;;;;;2.00;0.70;;;;;;;;;;6153571;23;20013;-82
2023/08/08 15:10:45;;;;;;;2.03;0.73;;;;;;;;;;6181288;23;20412;-84
2023/08/08 15:13:11;;;;;;;1.98;0.70;;;;;;;;;;6155217;23;20016;-82
2023/08/08 15:15:37;;;;;;;2.95;0.60;;;;;;;;;;6153974;23;20009;-81
2023/08/08 15:18:03;;;;;;;2.75;0.70;;;;;;;;;;6153740;23;20578;-81
2023/08/08 15:20:29;;;;;;;2.60;0.75;;;;;;;;;;6180969;23;20018;-84
2023/08/08 15:22:55;;;;;;;2.97;0.65;;;;;;;;;;6153831;23;20036;-82
2023/08/08 15:25:21;;;;;;;2.17;0.50;;;;;;;;;;6181646;23;20012;-84
2023/08/08 15:27:47;;;;;;;2.67;0.50;;;;;;;;;;6156139;23;20428;-84
2023/08/08 15:30:17;;;;;;;2.92;0.70;;;;;;;;;;6183684;23;20020;-83
2023/08/08 15:32:48;;;;;;;1.70;0.63;;;;;;;;;;6182918;23;20012;-83
2023/08/08 15:35:16;;;;;;;3.28;0.57;;;;;;;;;;6154848;23;20023;-84
2023/08/08 15:37:45;;;;;;;4.63;0.63;;;;;;;;;;6154539;23;20009;-83
2023/08/08 15:40:17;;;;;;;1.10;0.43;;;;;;;;;;6156113;23;20029;-84
2023/08/08 15:43:01;;;;;;;5.57;0.75;;;;;;;;;;6157085;23;20055;-85
2023/08/08 15:45:32;;;;;;;1.77;0.65;;;;;;;;;;6157656;23;20013;-85
2023/08/08 15:47:58;;;;;;;;;;;;;;;;;;6160415;23;20092;-85
2023/08/08 15:50:25;;;;;;;4.18;0.73;;;;;;;;;;6161516;23;20267;-86
2023/08/08 15:55:49;;;;;;;2.78;0.57;;;;;;;;;;6140890;23;20052;-87
2023/08/08 15:58:27;;;;;;;2.90;0.80;;;;;;;;;;6161248;23;20637;-87
2023/08/08 16:01:06;;;;;;;;;;;;;;;;;;;;;
2023/08/08 16:03:34;;;;;;;1.55;0.60;;;;;;;;;;6187897;23;20079;-85
2023/08/08 16:06:09;;;;;;;3.40;0.70;;;;;;;;;;6184426;23;20011;-84
2023/08/08 16:09:10;;;;;;;1.85;0.70;;;;;;;;;;6156352;23;20009;-84
2023/08/08 16:18:27;;;;;;;2.95;0.70;;;;;;;;;;6035765;23;20098;-84
2023/08/08 16:21:05;;;;;;;5.97;0.60;;;;;;;;;;6062607;23;20022;-84
2023/08/08 16:23:48;;;;;;;1.83;0.65;;;;;;;;;;6184330;23;20005;-85
2023/08/08 16:26:24;;;;;;;1.08;0.57;;;;;;;;;;6183839;23;20009;-84
2023/08/08 16:28:55;;;;;;;2.92;0.90;;;;;;;;;;6181695;23;20017;-85
2023/08/08 16:32:18;;;;;;;;;;;;;;;;;;;;;
2023/08/08 16:46:51;;;;;;;2.08;0.75;;;;;;;;;;6185548;23;20060;-85
2023/08/08 16:49:17;;;;;;;2.03;0.70;;;;;;;;;;6158535;23;20013;-83
2023/08/08 16:52:01;;;;;;;1.20;0.70;;;;;;;;;;6184499;23;20062;-83
2023/08/08 17:06:09;;;;;;;3.70;0.93;;;;;;;;;;6179363;23;20067;-88
2023/08/08 17:08:37;;;;;;;2.38;0.88;;;;;;;;;;6159226;23;20059;-84
2023/08/08 17:11:09;;;;;;;2.13;0.90;;;;;;;;;;6157815;23;20015;-85
2023/08/08 17:14:27;;;;;;;2.47;0.80;;;;;;;;;;6182824;23;20001;-87
2023/08/08 17:48:02;;;;;;;1.95;0.90;;;;;;;;;;6167210;23;20076;-84
2023/08/08 17:50:34;;;;;;;2.30;0.85;;;;;;;;;;6155810;23;20532;-84
2023/08/08 17:53:06;;;;;;;3.03;1.02;;;;;;;;;;6182559;23;20692;-83
2023/08/08 17:55:38;;;;;;;3.70;1.08;;;;;;;;;;6149284;23;20019;-84
2023/08/08 18:01:53;;;;;;;2.67;1.00;;;;;;;;;;6181594;23;20048;-84
2023/08/08 18:04:48;;;;;;;2.55;1.05;;;;;;;;;;6128019;23;20646;-84
2023/08/08 18:07:24;;;;;;;3.22;1.50;;;;;;;;;;6117967;23;20018;-84
2023/08/08 18:22:23;;;;;;;2.63;1.10;;;;;;;;;;6061506;23;20074;-81
2023/08/08 18:24:52;;;;;;;3.03;1.10;;;;;;;;;;6037155;23;20651;-81
2023/08/08 18:45:37;;;;;;;2.50;0.70;;;;;;;;;;6122101;23;20358;-81
2023/08/08 18:48:07;;;;;;;2.28;0.70;;;;;;;;;;6122174;23;20006;-82
2023/08/08 19:24:23;;;;;;;;;;;;;;;;;;;;;
2023/08/08 20:36:28;;;;;;;;;;;;;;;;;;;;;
2023/08/08 21:04:13;;;;;;;;;;;;;;;;;;;;;
2023/08/08 21:07:33;;;;;;;;;;;;;;;;;;;;;
